Latest Weather Observations for Fort Denison

IDN60901

Issued at 10:45 pm EST Wednesday 27 August 2014 (issued every 10 minutes, with the page automatically refreshed every 10 minutes)

About weather observations | Map of Sydney area stations | Latest observations for Sydney area | Other Formats
Station Details ID: 066022 Name: FORT DENISON Lat: -33.86 Lon: 151.23 Height: 5.0 m
Data from the previous 72 hours. | See also: Recent months for locations in New South Wales
Date/Time
EST
Tmp

°C
App
Tmp
°C
Dew
Point
°C
Rel
Hum
%
Delta-T

°C
Wind Press
QNH
hPa
Press
MSL
hPa
Rain
since
9 am
mm
Dir
 
Spd
km/h
Gust
km/h
Spd
kts
Gust
kts
27/10:30pm - - - - - S 17 28 9 15 - - -
27/10:00pm - - - - - S 17 28 9 15 - - -
27/09:30pm - - - - - S 11 17 6 9 - - -
27/09:00pm - - - - - S 11 19 6 10 - - -
27/08:30pm - - - - - S 17 24 9 13 - - -
27/08:00pm - - - - - S 20 30 11 16 - - -
27/07:30pm - - - - - SSE 20 30 11 16 - - -
27/07:00pm - - - - - SSE 28 41 15 22 - - -
27/06:30pm - - - - - SSE 28 39 15 21 - - -
27/06:00pm - - - - - SSE 30 41 16 22 - - -
27/05:30pm - - - - - SSE 30 46 16 25 - - -
27/05:00pm - - - - - SSE 33 52 18 28 - - -
27/04:51pm - - - - - SSE 28 46 15 25 - - -
27/04:30pm - - - - - SSE 32 44 17 24 - - -
27/04:00pm - - - - - SSE 30 43 16 23 - - -
27/03:49pm - - - - - SSE 35 54 19 29 - - -
27/03:30pm - - - - - SSE 33 48 18 26 - - -
27/03:03pm - - - - - SSE 28 46 15 25 - - -
27/03:00pm - - - - - SE 28 41 15 22 - - -
27/02:30pm - - - - - SSE 35 50 19 27 - - -
27/02:00pm - - - - - SE 32 46 17 25 - - -
27/01:41pm - - - - - SE 28 46 15 25 - - -
27/01:30pm - - - - - SE 32 48 17 26 - - -
27/01:22pm - - - - - SSE 28 48 15 26 - - -
27/01:00pm - - - - - SE 26 37 14 20 - - -
27/12:30pm - - - - - SE 20 41 11 22 - - -
27/12:00pm - - - - - S 20 30 11 16 - - -
27/11:39am - - - - - SSE 32 50 17 27 - - -
27/11:30am - - - - - SSE 37 52 20 28 - - -
27/11:01am - - - - - SE 28 46 15 25 - - -
27/11:00am - - - - - SSE 30 46 16 25 - - -
27/10:57am - - - - - SE 28 46 15 25 - - -
27/10:30am - - - - - SSE 28 43 15 23 - - -
27/10:00am - - - - - SE 26 33 14 18 - - -
27/09:30am - - - - - SE 22 33 12 18 - - -
27/09:00am - - - - - S 19 26 10 14 - - -
27/08:30am - - - - - ESE 9 17 5 9 - - -
27/08:00am - - - - - SSE 26 41 14 22 - - -
27/07:30am - - - - - SSE 19 30 10 16 - - -
27/07:00am - - - - - SSE 24 35 13 19 - - -
27/06:30am - - - - - SSE 22 32 12 17 - - -
27/06:00am - - - - - S 15 22 8 12 - - -
27/05:30am - - - - - S 26 39 14 21 - - -
27/05:00am - - - - - SSE 20 37 11 20 - - -
27/04:30am - - - - - S 11 17 6 9 - - -
27/04:00am - - - - - SSE 19 24 10 13 - - -
27/03:30am - - - - - SE 15 22 8 12 - - -
27/03:00am - - - - - SE 20 32 11 17 - - -
27/02:30am - - - - - SE 24 33 13 18 - - -
27/02:00am - - - - - ESE 30 39 16 21 - - -
27/01:59am - - - - - ESE 32 39 17 21 - - -
27/01:30am - - - - - SSE 13 20 7 11 - - -
27/01:00am - - - - - SE 20 28 11 15 - - -
27/12:30am - - - - - SE 17 28 9 15 - - -
27/12:00am - - - - - ESE 17 22 9 12 - - -
 
Date/Time
EST
Tmp

°C
App
Tmp
°C
Dew
Point
°C
Rel
Hum
%
Delta-T

°C
Wind Press
QNH
hPa
Press
MSL
hPa
Rain
since
9 am
mm
Dir
 
Spd
km/h
Gust
km/h
Spd
kts
Gust
kts
26/11:30pm - - - - - ESE 20 30 11 16 - - -
26/11:00pm - - - - - ESE 24 39 13 21 - - -
26/10:30pm - - - - - ESE 30 44 16 24 - - -
26/10:00pm - - - - - ESE 32 46 17 25 - - -
26/09:30pm - - - - - ESE 39 46 21 25 - - -
26/09:00pm - - - - - ESE 33 44 18 24 - - -
26/08:30pm - - - - - ESE 37 48 20 26 - - -
26/08:00pm - - - - - SE 30 52 16 28 - - -
26/07:56pm - - - - - SE 33 52 18 28 - - -
26/07:51pm - - - - - ESE 39 52 21 28 - - -
26/07:30pm - - - - - SSE 9 13 5 7 - - -
26/07:00pm - - - - - ESE 22 28 12 15 - - -
26/06:30pm - - - - - ESE 28 39 15 21 - - -
26/06:00pm - - - - - ESE 30 39 16 21 - - -
26/05:39pm - - - - - ESE 28 43 15 23 - - -
26/05:30pm - - - - - SSE 15 22 8 12 - - -
26/05:00pm - - - - - SSW 7 11 4 6 - - -
26/04:30pm - - - - - S 15 32 8 17 - - -
26/04:00pm - - - - - SSW 15 22 8 12 - - -
26/03:30pm - - - - - SW 6 7 3 4 - - -
26/03:00pm - - - - - SSW 9 11 5 6 - - -
26/02:30pm - - - - - SSE 13 17 7 9 - - -
26/02:00pm - - - - - S 13 20 7 11 - - -
26/01:30pm - - - - - SSW 9 17 5 9 - - -
26/01:00pm - - - - - S 13 20 7 11 - - -
26/12:30pm - - - - - S 17 26 9 14 - - -
26/12:00pm - - - - - S 6 13 3 7 - - -
26/11:30am - - - - - SW 2 6 1 3 - - -
26/11:00am - - - - - SW 4 4 2 2 - - -
26/10:30am - - - - - S 2 6 1 3 - - -
26/10:00am - - - - - S 2 6 1 3 - - -
26/09:30am - - - - - ESE 2 6 1 3 - - -
26/09:00am - - - - - SSW 2 4 1 2 - - -
26/08:30am - - - - - WNW 7 9 4 5 - - -
26/08:00am - - - - - W 9 11 5 6 - - -
26/07:30am - - - - - WNW 9 11 5 6 - - -
26/07:00am - - - - - W 7 9 4 5 - - -
26/06:30am - - - - - W 9 13 5 7 - - -
26/06:00am - - - - - WNW 9 11 5 6 - - -
26/05:30am - - - - - W 15 17 8 9 - - -
26/05:00am - - - - - W 9 15 5 8 - - -
26/04:30am - - - - - W 13 15 7 8 - - -
26/04:00am - - - - - W 15 17 8 9 - - -
26/03:30am - - - - - W 15 17 8 9 - - -
26/03:00am - - - - - W 15 17 8 9 - - -
26/02:30am - - - - - W 17 19 9 10 - - -
26/02:00am - - - - - W 13 19 7 10 - - -
26/01:30am - - - - - W 9 11 5 6 - - -
26/01:00am - - - - - SW 6 7 3 4 - - -
26/12:30am - - - - - SE 11 17 6 9 - - -
26/12:00am - - - - - SW 6 9 3 5 - - -
 
Date/Time
EST
Tmp

°C
App
Tmp
°C
Dew
Point
°C
Rel
Hum
%
Delta-T

°C
Wind Press
QNH
hPa
Press
MSL
hPa
Rain
since
9 am
mm
Dir
 
Spd
km/h
Gust
km/h
Spd
kts
Gust
kts
25/11:30pm - - - - - W 11 13 6 7 - - -
25/11:00pm - - - - - W 9 11 5 6 - - -
25/10:30pm - - - - - NNW 4 6 2 3 - - -
25/10:00pm - - - - - SW 4 7 2 4 - - -
25/09:30pm - - - - - E 13 17 7 9 - - -
25/09:00pm - - - - - E 15 20 8 11 - - -
25/08:30pm - - - - - ESE 26 33 14 18 - - -
25/08:00pm - - - - - NNW 2 4 1 2 - - -
25/07:30pm - - - - - S 4 6 2 3 - - -
25/07:00pm - - - - - ESE 2 2 1 1 - - -
25/06:30pm - - - - - E 6 9 3 5 - - -
25/06:00pm - - - - - ESE 11 13 6 7 - - -
25/05:30pm - - - - - E 11 13 6 7 - - -
25/05:00pm - - - - - E 15 19 8 10 - - -
25/04:30pm - - - - - ESE 20 26 11 14 - - -
25/04:00pm - - - - - ESE 20 24 11 13 - - -
25/03:30pm - - - - - ESE 17 22 9 12 - - -
25/03:00pm - - - - - ESE 19 22 10 12 - - -
25/02:30pm - - - - - E 15 17 8 9 - - -
25/02:00pm - - - - - ESE 17 19 9 10 - - -
25/01:30pm - - - - - E 13 17 7 9 - - -
25/01:00pm - - - - - E 13 15 7 8 - - -
25/12:30pm - - - - - E 15 19 8 10 - - -
25/12:00pm - - - - - E 11 15 6 8 - - -
25/11:30am - - - - - ESE 6 7 3 4 - - -
25/11:00am - - - - - W 6 9 3 5 - - -
25/10:30am - - - - - W 13 15 7 8 - - -
25/10:00am - - - - - W 13 15 7 8 - - -
25/09:30am - - - - - W 11 13 6 7 - - -
25/09:00am - - - - - W 13 15 7 8 - - -
25/08:30am - - - - - W 13 15 7 8 - - -
25/08:00am - - - - - W 13 17 7 9 - - -
25/07:30am - - - - - W 13 15 7 8 - - -
25/07:00am - - - - - W 13 15 7 8 - - -
25/06:30am - - - - - W 13 17 7 9 - - -
25/06:00am - - - - - WNW 11 13 6 7 - - -
25/05:30am - - - - - W 11 15 6 8 - - -
25/05:00am - - - - - W 13 15 7 8 - - -
25/04:30am - - - - - W 11 15 6 8 - - -
25/04:00am - - - - - W 9 13 5 7 - - -
25/03:30am - - - - - W 19 20 10 11 - - -
25/03:00am - - - - - W 9 11 5 6 - - -
25/02:30am - - - - - W 13 13 7 7 - - -
25/02:00am - - - - - W 11 11 6 6 - - -
25/01:30am - - - - - W 9 11 5 6 - - -
25/01:00am - - - - - W 9 9 5 5 - - -
25/12:30am - - - - - W 11 13 6 7 - - -
25/12:00am - - - - - WNW 11 13 6 7 - - -
 
Date/Time
EST
Tmp

°C
App
Tmp
°C
Dew
Point
°C
Rel
Hum
%
Delta-T

°C
Wind Press
QNH
hPa
Press
MSL
hPa
Rain
since
9 am
mm
Dir
 
Spd
km/h
Gust
km/h
Spd
kts
Gust
kts
24/11:30pm - - - - - W 11 13 6 7 - - -
24/11:00pm - - - - - W 17 19 9 10 - - -

Latest Capital City Observations: Canberra | Sydney | Melbourne | Brisbane | Adelaide | Perth | Hobart | Darwin

Other Formats:

Comma delimited format used in spreadsheet applications
http://www.bom.gov.au/fwo/IDN60901/IDN60901.94769.axf

JavaScript Object Notation format (JSON) in row-major order
http://www.bom.gov.au/fwo/IDN60901/IDN60901.94769.json